Fort Loudoun Observed Data For Previous 48 Hours

Caption
Day and Hour Reservoir Elevation (behind dam)* Tailwater Elevation (below dam)* Average Hourly Discharge*
9/21/2017 2 AM EDT 812.68 740.55 0
9/21/2017 3 AM EDT 812.72 740.79 0
9/21/2017 4 AM EDT 812.77 741.00 0
9/21/2017 5 AM EDT 812.80 740.91 0
9/21/2017 6 AM EDT 812.82 740.67 14
9/21/2017 7 AM EDT 812.83 740.78 5,280
9/21/2017 8 AM EDT 812.87 740.74 5,480
9/21/2017 9 AM EDT 812.88 740.99 10,811
9/21/2017 10 AM EDT 812.87 741.45 16,661
9/21/2017 11 AM EDT 812.87 741.60 16,781
9/21/2017 12 PM EDT 812.85 741.50 16,785
9/21/2017 1 PM EDT 812.83 741.71 17,791
9/21/2017 2 PM EDT 812.80 742.03 22,827
9/21/2017 3 PM EDT 812.80 742.18 23,285
9/21/2017 4 PM EDT 812.75 742.64 29,045
9/21/2017 5 PM EDT 812.73 742.69 29,097
9/21/2017 6 PM EDT 812.68 742.71 29,093
9/21/2017 7 PM EDT 812.65 742.72 29,013
9/21/2017 8 PM EDT 812.62 742.75 29,097
9/21/2017 9 PM EDT 812.62 742.21 22,943
9/21/2017 10 PM EDT 812.64 741.50 16,973
9/21/2017 11 PM EDT 812.69 740.87 11,203
9/22/2017 12 AM EDT 812.68 740.42 5,696
9/22/2017 1 AM EDT 812.73 740.27 162
9/22/2017 2 AM EDT 812.75 740.60 0
9/22/2017 3 AM EDT 812.79 740.90 0
9/22/2017 4 AM EDT 812.83 741.22 730
9/22/2017 5 AM EDT 812.84 741.23 5,492
9/22/2017 6 AM EDT 812.86 741.02 5,474
9/22/2017 7 AM EDT 812.89 740.83 5,489
9/22/2017 8 AM EDT 812.92 740.66 5,506
9/22/2017 9 AM EDT 812.95 740.63 5,505
9/22/2017 10 AM EDT 812.97 740.70 5,521
9/22/2017 11 AM EDT 812.95 741.19 10,781
9/22/2017 12 PM EDT 812.93 741.71 16,758
9/22/2017 1 PM EDT 812.94 742.39 23,060
9/22/2017 2 PM EDT 812.91 742.70 27,093
9/22/2017 3 PM EDT 812.89 742.73 26,763
9/22/2017 4 PM EDT 812.85 742.64 26,949
9/22/2017 5 PM EDT 812.86 741.55 17,254
9/22/2017 6 PM EDT 812.85 741.29 16,838
9/22/2017 7 PM EDT 812.84 741.21 16,860
9/22/2017 8 PM EDT 812.83 741.19 16,889
9/22/2017 9 PM EDT 812.83 741.21 16,827
9/22/2017 10 PM EDT 812.85 741.26 16,821
9/22/2017 11 PM EDT 812.86 741.36 17,230
9/23/2017 12 AM EDT 812.82 741.89 22,828
9/23/2017 1 AM EDT 812.80 741.99 22,809
9/23/2017 2 AM EDT 812.82 741.43 16,962
9/23/2017 3 AM EDT 812.84 740.78 11,229

Elevations are in feet above sea level. Discharges are in cubic feet per second and are reported at the end of the hour.